フランクフルト国際空港の過去48時間の天気

フランクフルト国際空港 (Frankfurt / M-Flughafen)

現在時刻: 9/22 23:25 CEST (9/22 21:25 UTC) 以下の時間は現地時間です。

過去48時間のMETAR気象情報
時間 風向 風速(m/s) 視程 気温(℃) 湿度(%) 気圧(hPa) 天気現象
22 22:50 東北東 2 10km以上 18 64 1009
22 22:20 東北東 2 10km以上 18 64 1009
22 21:50 不定 1 10km以上 18 64 1009
22 21:20 不定 1 10km以上 18 64 1009
22 20:50 不定 1 10km以上 19 60 1009
22 20:20 不定 1 10km以上 19 56 1009
22 19:50 不定 1 10km以上 20 53 1009
22 19:20 不定 1 10km以上 20 53 1009
22 18:50 不定 1 10km以上 22 46 1009
22 18:20 南西 3 10km以上 23 41 1009
22 17:50 南南西 3 10km以上 23 41 1009
22 17:20 3 10km以上 24 38 1009
22 16:50 南南東 2 10km以上 24 38 1009
22 16:20 南東 2 10km以上 25 36 1009
22 15:50 不定 2 10km以上 26 34 1009
22 15:20 不定 2 10km以上 24 38 1010
22 14:50 不定 2 10km以上 24 36 1010
22 14:20 不定 2 10km以上 23 38 1010
22 13:50 不定 2 10km以上 23 38 1011
22 13:20 不定 1 10km以上 22 41 1011
22 12:50 不定 1 10km以上 21 43 1011
22 12:20 不定 1 10km以上 21 43 1012
22 11:50 北東 2 10km以上 20 46 1012
22 11:20 2 10km以上 19 49 1012
22 10:50 東北東 3 10km以上 17 52 1013
22 10:20 2 10km以上 17 52 1013
22 09:50 北東 4 10km以上 16 55 1013
22 09:20 北東 3 10km以上 15 59 1013
22 08:50 北北東 4 10km以上 14 59 1013
22 08:20 北東 5 10km以上 13 62 1013
22 07:50 北北東 4 10km以上 12 67 1013
22 07:20 北北東 3 10km以上 11 71 1013
22 06:50 北北東 4 10km以上 12 67 1013
22 06:20 北東 2 10km以上 11 71 1013
22 05:50 北北東 3 10km以上 12 67 1013
22 05:20 北北東 4 10km以上 12 67 1013
22 04:50 北北東 3 10km以上 12 67 1013
22 04:20 3 10km以上 12 67 1013
22 03:50 北北東 2 10km以上 12 67 1013
22 03:20 北北東 2 10km以上 12 67 1014
22 02:50 3 10km以上 12 67 1014
22 02:20 3 10km以上 13 62 1014
22 01:50 不定 1 10km以上 11 67 1014
22 01:20 2 10km以上 11 67 1014
22 00:50 3 10km以上 12 62 1014
22 00:20 東北東 3 10km以上 13 58 1015
21 23:50 3 10km以上 13 58 1015
21 23:20 4 10km以上 15 51 1015
21 22:50 4 10km以上 17 45 1015
21 22:20 4 10km以上 18 42 1015
21 21:50 3 10km以上 18 42 1016
EDDF 222050Z 07004KT CAVOK 18/11 Q1009 NOSIG
EDDF 222020Z 07004KT 050V120 CAVOK 18/11 Q1009 NOSIG
EDDF 221950Z VRB01KT CAVOK 18/11 Q1009 NOSIG
EDDF 221920Z VRB02KT CAVOK 18/11 Q1009 NOSIG
EDDF 221850Z VRB02KT CAVOK 19/11 Q1009 NOSIG
EDDF 221820Z VRB01KT CAVOK 19/10 Q1009 NOSIG
EDDF 221750Z VRB01KT CAVOK 20/10 Q1009 NOSIG
EDDF 221720Z VRB02KT CAVOK 20/10 Q1009 NOSIG
EDDF 221650Z VRB01KT CAVOK 22/10 Q1009 NOSIG
EDDF 221620Z 22005KT 200V260 CAVOK 23/09 Q1009 NOSIG
EDDF 221550Z 21006KT CAVOK 23/09 Q1009 NOSIG
EDDF 221520Z 18005KT CAVOK 24/09 Q1009 NOSIG
EDDF 221450Z 16004KT 130V210 CAVOK 24/09 Q1009 NOSIG
EDDF 221420Z 14003KT 080V240 CAVOK 25/09 Q1009 NOSIG
EDDF 221350Z VRB04KT CAVOK 26/09 Q1009 NOSIG
EDDF 221320Z VRB03KT CAVOK 24/09 Q1010 NOSIG
EDDF 221250Z VRB03KT CAVOK 24/08 Q1010 NOSIG
EDDF 221220Z VRB03KT CAVOK 23/08 Q1010 NOSIG
EDDF 221150Z VRB04KT CAVOK 23/08 Q1011 NOSIG
EDDF 221120Z VRB02KT CAVOK 22/08 Q1011 NOSIG
EDDF 221050Z VRB02KT CAVOK 21/08 Q1011 NOSIG
EDDF 221020Z VRB02KT CAVOK 21/08 Q1012 NOSIG
EDDF 220950Z 05004KT 350V120 CAVOK 20/08 Q1012 NOSIG
EDDF 220920Z 10003KT 040V150 CAVOK 19/08 Q1012 NOSIG
EDDF 220850Z 06005KT 020V090 CAVOK 17/07 Q1013 NOSIG
EDDF 220820Z 08004KT 010V140 CAVOK 17/07 Q1013 NOSIG
EDDF 220750Z 05007KT CAVOK 16/07 Q1013 NOSIG
EDDF 220720Z 05006KT CAVOK 15/07 Q1013 NOSIG
EDDF 220650Z 02007KT 350V060 CAVOK 14/06 Q1013 NOSIG
EDDF 220620Z 04009KT CAVOK 13/06 Q1013 NOSIG
EDDF 220550Z 02008KT CAVOK 12/06 Q1013 NOSIG
EDDF 220520Z 02006KT CAVOK 11/06 Q1013 NOSIG
EDDF 220450Z 03008KT CAVOK 12/06 Q1013 NOSIG
EDDF 220420Z 05004KT CAVOK 11/06 Q1013 NOSIG
EDDF 220350Z 03005KT CAVOK 12/06 Q1013 NOSIG
EDDF 220320Z 03007KT 360V060 CAVOK 12/06 Q1013 NOSIG
EDDF 220250Z 02005KT CAVOK 12/06 Q1013 NOSIG
EDDF 220220Z 01005KT 350V060 CAVOK 12/06 Q1013 NOSIG
EDDF 220150Z 02004KT 350V090 CAVOK 12/06 Q1013 NOSIG
EDDF 220120Z 02004KT CAVOK 12/06 Q1014 NOSIG
EDDF 220050Z 01006KT CAVOK 12/06 Q1014 NOSIG
EDDF 220020Z 01005KT 360V070 CAVOK 13/06 Q1014 NOSIG
EDDF 212350Z VRB02KT CAVOK 11/05 Q1014 NOSIG
EDDF 212320Z 08004KT CAVOK 11/05 Q1014 NOSIG
EDDF 212250Z 08005KT CAVOK 12/05 Q1014 NOSIG
EDDF 212220Z 07006KT CAVOK 13/05 Q1015 NOSIG
EDDF 212150Z 09005KT CAVOK 13/05 Q1015 NOSIG
EDDF 212120Z 08007KT CAVOK 15/05 Q1015 NOSIG
EDDF 212050Z 08008KT CAVOK 17/05 Q1015 NOSIG
EDDF 212020Z 08007KT CAVOK 18/05 Q1015 NOSIG
EDDF 211950Z 08006KT CAVOK 18/05 Q1016 NOSIG